createdAt,value
2018-06-08T00:00:27.618Z,9.80
2018-06-08T00:02:55.850Z,11.90
2018-06-08T00:05:23.364Z,11.23
2018-06-08T00:07:52.318Z,9.53
2018-06-08T00:10:19.795Z,14.80
2018-06-08T00:12:47.281Z,8.60
2018-06-08T00:15:16.275Z,11.23
2018-06-08T00:17:43.740Z,10.23
2018-06-08T00:20:11.973Z,12.20
2018-06-08T00:22:39.466Z,11.13
2018-06-08T00:25:06.943Z,11.50
2018-06-08T00:27:35.179Z,10.37
2018-06-08T00:30:02.637Z,12.33
2018-06-08T00:32:30.103Z,11.80
2018-06-08T00:34:57.564Z,12.30
2018-06-08T00:37:25.041Z,20.77
2018-06-08T00:39:52.524Z,13.67
2018-06-08T00:42:19.998Z,10.80
2018-06-08T00:44:47.487Z,16.00
2018-06-08T00:47:15.712Z,13.37
2018-06-08T00:49:43.301Z,12.70
2018-06-08T00:52:11.570Z,12.23
2018-06-08T00:54:39.131Z,14.93
2018-06-08T00:57:06.867Z,14.10
2018-06-08T00:59:34.319Z,16.20
2018-06-08T01:02:01.790Z,11.13
2018-06-08T01:04:29.251Z,14.50
2018-06-08T01:06:56.716Z,15.33
2018-06-08T01:09:24.186Z,16.10
2018-06-08T01:11:51.689Z,12.50
2018-06-08T01:14:19.955Z,13.47
2018-06-08T01:16:47.426Z,12.33
2018-06-08T01:19:14.980Z,15.07
2018-06-08T01:21:42.443Z,14.47
2018-06-08T01:24:09.999Z,12.73
2018-06-08T01:26:37.473Z,14.60
2018-06-08T01:29:05.037Z,13.77
2018-06-08T01:31:32.522Z,13.07
2018-06-08T01:34:00.051Z,14.50
2018-06-08T01:36:27.513Z,12.40
2018-06-08T01:38:54.972Z,13.90
2018-06-08T01:41:22.449Z,14.37
2018-06-08T01:43:50.020Z,11.97
2018-06-08T01:46:17.471Z,14.70
2018-06-08T01:48:44.935Z,13.33
2018-06-08T01:51:12.400Z,13.80
2018-06-08T01:53:39.866Z,13.97
2018-06-08T01:56:07.321Z,14.80
2018-06-08T01:58:34.887Z,14.60
2018-06-08T02:01:02.451Z,14.40
2018-06-08T02:03:29.908Z,15.43
2018-06-08T02:05:57.478Z,13.97
2018-06-08T02:08:24.936Z,21.83
2018-06-08T02:10:52.407Z,16.30
2018-06-08T02:13:19.969Z,17.60
2018-06-08T02:15:47.436Z,15.50
2018-06-08T02:18:14.927Z,19.73
2018-06-08T02:20:43.159Z,13.77
2018-06-08T02:23:10.638Z,14.33
2018-06-08T02:25:38.101Z,22.03
2018-06-08T02:28:05.559Z,17.77
2018-06-08T02:30:33.125Z,15.27
2018-06-08T02:33:00.595Z,16.40
2018-06-08T02:35:29.588Z,15.10
2018-06-08T02:37:57.345Z,16.03
2018-06-08T02:40:24.855Z,17.43
2018-06-08T02:42:53.088Z,15.07
2018-06-08T02:45:20.551Z,14.87
2018-06-08T02:47:48.012Z,14.80
2018-06-08T02:50:15.475Z,13.93
2018-06-08T02:52:43.039Z,15.10
2018-06-08T02:55:10.505Z,14.47
2018-06-08T02:57:37.963Z,16.57
2018-06-08T03:00:05.430Z,15.97
2018-06-08T03:02:32.912Z,18.23
2018-06-08T03:05:01.753Z,16.00
2018-06-08T03:07:29.243Z,16.43
2018-06-08T03:09:56.712Z,15.90
2018-06-08T03:12:24.171Z,17.17
2018-06-08T03:14:51.639Z,13.90
2018-06-08T03:17:19.112Z,22.93
2018-06-08T03:19:47.352Z,16.13
2018-06-08T03:22:14.798Z,18.07
2018-06-08T03:24:42.297Z,16.20
2018-06-08T03:27:09.871Z,23.73
2018-06-08T03:29:37.436Z,16.80
2018-06-08T03:32:04.992Z,14.87
2018-06-08T03:34:32.563Z,14.83
2018-06-08T03:37:00.092Z,23.87
2018-06-08T03:39:28.300Z,19.67
2018-06-08T03:41:55.759Z,17.90
2018-06-08T03:44:23.236Z,17.17
2018-06-08T03:46:50.694Z,19.07
2018-06-08T03:49:18.151Z,16.90
2018-06-08T03:51:45.716Z,20.00
2018-06-08T03:54:13.268Z,16.47
2018-06-08T03:56:40.839Z,16.50
2018-06-08T03:59:08.323Z,18.50
2018-06-08T04:01:36.555Z,16.63
2018-06-08T04:04:04.012Z,16.70
2018-06-08T04:06:31.505Z,17.27
2018-06-08T04:08:59.058Z,17.83
2018-06-08T04:11:27.125Z,15.63
2018-06-08T04:13:54.602Z,17.93
2018-06-08T04:16:22.080Z,15.83
2018-06-08T04:18:49.540Z,18.63
2018-06-08T04:21:18.510Z,16.50
2018-06-08T04:23:45.963Z,16.33
2018-06-08T04:26:13.448Z,17.60
2018-06-08T04:28:40.904Z,18.60
2018-06-08T04:31:08.368Z,20.43
2018-06-08T04:33:35.836Z,16.13
2018-06-08T04:36:03.299Z,16.00
2018-06-08T04:38:30.770Z,18.33
2018-06-08T04:40:58.252Z,16.67
2018-06-08T04:43:26.487Z,16.07
2018-06-08T04:45:53.975Z,18.80
2018-06-08T04:48:22.950Z,18.07
2018-06-08T04:50:50.439Z,18.17
2018-06-08T04:53:17.903Z,16.47
2018-06-08T04:55:45.454Z,19.08
2018-06-08T04:58:13.017Z,19.63
2018-06-08T05:00:40.488Z,21.70
2018-06-08T05:03:08.051Z,15.50
2018-06-08T05:05:35.512Z,17.47
2018-06-08T05:08:04.482Z,16.80
2018-06-08T05:10:31.953Z,15.70
2018-06-08T05:12:59.418Z,13.13
2018-06-08T05:15:26.982Z,15.97
2018-06-08T05:17:55.532Z,13.80
2018-06-08T05:20:23.056Z,14.23
2018-06-08T05:22:51.298Z,14.90
2018-06-08T05:25:18.758Z,12.63
2018-06-08T05:27:46.248Z,11.33
2018-06-08T05:30:13.710Z,14.20
2018-06-08T05:32:41.189Z,12.13
2018-06-08T05:35:09.431Z,13.03
2018-06-08T05:37:36.912Z,13.80
2018-06-08T05:40:04.363Z,13.13
2018-06-08T05:42:31.969Z,14.07
2018-06-08T05:45:00.207Z,14.33
2018-06-08T05:47:27.678Z,11.60
2018-06-08T05:49:55.144Z,11.57
2018-06-08T05:52:22.604Z,11.63
2018-06-08T05:54:50.171Z,12.23
2018-06-08T05:57:17.622Z,10.37
2018-06-08T05:59:45.113Z,13.57
2018-06-08T06:02:13.331Z,13.90
2018-06-08T06:04:40.828Z,12.87
2018-06-08T06:07:08.296Z,11.20
2018-06-08T06:09:35.767Z,15.13
2018-06-08T06:12:04.845Z,12.07
2018-06-08T06:14:32.311Z,15.67
2018-06-08T06:16:59.776Z,14.13
2018-06-08T06:19:27.235Z,11.03
2018-06-08T06:21:54.692Z,12.67
2018-06-08T06:24:24.152Z,11.73
2018-06-08T06:26:52.380Z,14.70
2018-06-08T06:29:19.951Z,13.63
2018-06-08T06:31:47.527Z,12.40
2018-06-08T06:34:15.081Z,12.07
2018-06-08T06:36:42.536Z,12.00
2018-06-08T06:39:10.009Z,16.23
2018-06-08T06:41:37.471Z,12.57
2018-06-08T06:44:04.939Z,15.90
2018-06-08T06:46:33.168Z,15.03
2018-06-08T06:49:00.668Z,15.00
2018-06-08T06:51:28.143Z,15.17
2018-06-08T06:53:55.610Z,13.73
2018-06-08T06:56:23.159Z,13.23
2018-06-08T06:58:50.642Z,14.30
2018-06-08T07:01:18.915Z,11.90
2018-06-08T07:03:47.997Z,12.40
2018-06-08T07:06:15.483Z,13.30
2018-06-08T07:08:42.958Z,13.07
2018-06-08T07:11:11.187Z,12.40
2018-06-08T07:13:38.646Z,11.27
2018-06-08T07:16:06.126Z,12.60
2018-06-08T07:18:33.597Z,14.30
2018-06-08T07:21:01.158Z,13.23
2018-06-08T07:23:28.637Z,17.47
2018-06-08T07:25:56.871Z,18.33
2018-06-08T07:28:24.368Z,15.17
2018-06-08T07:30:51.833Z,13.17
2018-06-08T07:33:19.299Z,14.27
2018-06-08T07:35:46.855Z,12.40
2018-06-08T07:38:14.322Z,10.57
2018-06-08T07:40:41.885Z,12.80
2018-06-08T07:43:09.349Z,10.90
2018-06-08T07:45:36.816Z,16.50
2018-06-08T07:48:04.296Z,12.53
2018-06-08T07:50:32.524Z,10.50
2018-06-08T07:53:00.012Z,12.63
2018-06-08T07:55:27.592Z,12.47
2018-06-08T07:57:55.823Z,11.83
2018-06-08T08:00:23.308Z,11.53
2018-06-08T08:02:50.763Z,13.23
2018-06-08T08:05:18.237Z,15.27
2018-06-08T08:07:45.692Z,15.47
2018-06-08T08:10:13.147Z,12.10
2018-06-08T08:12:40.608Z,11.33
2018-06-08T08:15:08.183Z,13.37
2018-06-08T08:17:35.656Z,13.83
2018-06-08T08:20:03.131Z,9.57
2018-06-08T08:22:31.407Z,11.77
2018-06-08T08:24:59.675Z,14.47
2018-06-08T08:27:27.234Z,17.33
2018-06-08T08:29:54.722Z,12.67
2018-06-08T08:32:22.940Z,12.40
2018-06-08T08:34:50.449Z,16.47
2018-06-08T08:37:19.188Z,11.50
2018-06-08T08:39:46.674Z,11.23
2018-06-08T08:42:14.148Z,11.23
2018-06-08T08:44:41.624Z,15.73
2018-06-08T08:47:09.176Z,12.03
2018-06-08T08:49:36.753Z,15.17
2018-06-08T08:52:05.750Z,14.03
2018-06-08T08:54:33.178Z,10.97
2018-06-08T08:57:00.662Z,11.77
2018-06-08T08:59:28.123Z,12.43
2018-06-08T09:01:55.694Z,14.37
2018-06-08T09:04:23.263Z,13.00
2018-06-08T09:06:50.844Z,14.90
2018-06-08T09:09:19.096Z,17.10
2018-06-08T09:11:46.672Z,12.43
2018-06-08T09:14:15.661Z,14.40
2018-06-08T09:16:43.216Z,12.93
2018-06-08T09:19:10.781Z,18.00
2018-06-08T09:21:38.256Z,17.30
2018-06-08T09:24:05.724Z,15.13
2018-06-08T09:26:33.967Z,13.87
2018-06-08T09:29:01.455Z,19.40
2018-06-08T09:31:28.922Z,17.30
2018-06-08T09:33:58.016Z,17.83
2018-06-08T09:36:25.578Z,15.47
2018-06-08T09:38:53.150Z,13.73
2018-06-08T09:41:20.633Z,17.53
2018-06-08T09:43:48.897Z,14.67
2018-06-08T09:46:16.531Z,14.30
2018-06-08T09:48:45.454Z,16.00
2018-06-08T09:51:12.908Z,14.70
2018-06-08T09:53:41.070Z,13.63
2018-06-08T09:56:08.530Z,16.97
2018-06-08T09:58:36.154Z,14.90
2018-06-08T10:01:04.392Z,13.67
2018-06-08T10:03:31.865Z,13.77
2018-06-08T10:06:00.092Z,14.47
2018-06-08T10:08:27.658Z,14.23
2018-06-08T10:10:55.124Z,12.17
2018-06-08T10:13:22.590Z,21.50
2018-06-08T10:15:50.049Z,14.67
2018-06-08T10:18:17.550Z,13.53
2018-06-08T10:20:45.107Z,14.67
2018-06-08T10:23:12.575Z,13.63
2018-06-08T10:25:40.139Z,15.80
2018-06-08T10:28:07.708Z,14.60
2018-06-08T10:30:35.276Z,12.80
2018-06-08T10:33:02.833Z,11.97
2018-06-08T10:35:30.291Z,12.93
2018-06-08T10:37:57.772Z,14.73
2018-06-08T10:40:25.239Z,16.23
2018-06-08T10:42:52.738Z,16.40
2018-06-08T10:45:20.192Z,13.73
2018-06-08T10:47:47.652Z,13.97
2018-06-08T10:50:15.177Z,13.20
2018-06-08T10:52:42.722Z,13.13
2018-06-08T10:55:11.685Z,14.40
2018-06-08T10:57:39.140Z,13.83
2018-06-08T11:00:06.603Z,12.57
2018-06-08T11:02:34.070Z,13.13
2018-06-08T11:05:01.540Z,14.97
2018-06-08T11:07:29.002Z,13.10
2018-06-08T11:09:57.329Z,12.87
2018-06-08T11:12:24.876Z,14.47
2018-06-08T11:14:52.443Z,15.37
2018-06-08T11:17:19.905Z,13.70
2018-06-08T11:19:47.426Z,13.60
2018-06-08T11:22:16.360Z,14.43
2018-06-08T11:24:43.836Z,12.00
2018-06-08T11:27:11.298Z,13.43
2018-06-08T11:29:38.773Z,12.53
2018-06-08T11:32:06.225Z,12.70
2018-06-08T11:34:35.249Z,14.07
2018-06-08T11:37:03.488Z,11.33
2018-06-08T11:39:31.004Z,11.57
2018-06-08T11:41:58.420Z,12.27
2018-06-08T11:44:25.991Z,12.07
2018-06-08T11:46:53.452Z,12.60
2018-06-08T11:49:20.905Z,13.60
2018-06-08T11:51:48.374Z,13.67
2018-06-08T11:54:15.934Z,10.47
2018-06-08T11:56:44.172Z,12.90
2018-06-08T11:59:11.644Z,10.07
2018-06-08T12:01:39.099Z,10.67
2018-06-08T12:04:06.571Z,14.17
2018-06-08T12:06:34.434Z,15.00
2018-06-08T12:09:01.953Z,12.37
2018-06-08T12:11:29.405Z,10.47
2018-06-08T12:13:56.999Z,10.23
2018-06-08T12:16:25.265Z,10.43
2018-06-08T12:18:52.801Z,10.90
2018-06-08T12:21:20.261Z,11.33
2018-06-08T12:23:47.741Z,12.90
2018-06-08T12:26:15.206Z,12.03
2018-06-08T12:28:42.763Z,13.23
2018-06-08T12:31:10.224Z,10.23
2018-06-08T12:33:37.770Z,11.77
2018-06-08T12:36:05.307Z,12.87
2018-06-08T12:38:33.495Z,12.17
2018-06-08T12:41:00.962Z,12.43
2018-06-08T12:43:28.452Z,10.57
2018-06-08T12:45:55.911Z,11.73
2018-06-08T12:48:23.391Z,10.87
2018-06-08T12:50:50.941Z,11.73
2018-06-08T12:53:18.507Z,10.33
2018-06-08T12:55:46.021Z,10.60
2018-06-08T12:58:13.584Z,10.87
2018-06-08T13:00:41.548Z,9.13
2018-06-08T13:03:09.109Z,10.17
2018-06-08T13:05:36.498Z,12.83
2018-06-08T13:08:03.957Z,12.83
2018-06-08T13:10:31.428Z,8.53
2018-06-08T13:13:00.096Z,11.47
2018-06-08T13:15:27.611Z,12.50
2018-06-08T13:17:55.096Z,10.20
2018-06-08T13:20:23.327Z,8.20
2018-06-08T13:22:50.809Z,9.07
2018-06-08T13:25:18.372Z,10.03
2018-06-08T13:27:45.948Z,10.10
2018-06-08T13:30:13.509Z,8.60
2018-06-08T13:32:40.969Z,9.00
2018-06-08T13:35:08.439Z,9.67
2018-06-08T13:37:35.905Z,8.73
2018-06-08T13:40:04.978Z,9.87
2018-06-08T13:42:32.456Z,9.70
2018-06-08T13:44:59.924Z,8.57
2018-06-08T13:47:28.900Z,9.63
2018-06-08T13:49:56.470Z,7.50
2018-06-08T13:52:23.919Z,8.47
2018-06-08T13:54:51.391Z,7.50
2018-06-08T13:57:18.849Z,9.47
2018-06-08T13:59:46.415Z,9.23
2018-06-08T14:02:13.879Z,7.10
2018-06-08T14:04:41.359Z,7.53
2018-06-08T14:07:08.817Z,8.23
2018-06-08T14:09:36.462Z,10.57
2018-06-08T14:12:04.047Z,7.13
2018-06-08T14:14:31.591Z,10.03
2018-06-08T14:16:59.060Z,7.50
2018-06-08T14:19:26.529Z,10.83
2018-06-08T14:21:54.084Z,7.23
2018-06-08T14:24:21.660Z,7.10
2018-06-08T14:26:49.129Z,7.37
2018-06-08T14:29:16.582Z,7.63
2018-06-08T14:31:44.056Z,6.73
2018-06-08T14:34:13.143Z,6.40
2018-06-08T14:36:40.605Z,6.73
2018-06-08T14:39:08.083Z,6.60
2018-06-08T14:41:37.060Z,8.57
2018-06-08T14:44:04.524Z,7.93
2018-06-08T14:46:31.980Z,6.57
2018-06-08T14:48:59.540Z,6.47
2018-06-08T14:51:26.991Z,8.20
2018-06-08T14:53:54.480Z,10.30
2018-06-08T14:56:21.935Z,6.87
2018-06-08T14:58:49.405Z,8.03
2018-06-08T15:01:16.867Z,9.87
2018-06-08T15:03:44.378Z,7.33
2018-06-08T15:06:11.883Z,5.40
2018-06-08T15:08:39.354Z,7.67
2018-06-08T15:11:06.824Z,6.50
2018-06-08T15:13:34.379Z,5.47
2018-06-08T15:16:01.830Z,5.77
2018-06-08T15:18:29.279Z,6.00
2018-06-08T15:20:56.961Z,7.57
2018-06-08T15:23:24.561Z,5.40
2018-06-08T15:25:52.797Z,5.67
2018-06-08T15:28:20.275Z,5.90
2018-06-08T15:30:47.739Z,5.17
2018-06-08T15:33:15.203Z,5.00
2018-06-08T15:35:42.788Z,4.77
2018-06-08T15:38:11.019Z,4.80
2018-06-08T15:40:38.561Z,5.43
2018-06-08T15:43:05.978Z,4.90
2018-06-08T15:45:34.210Z,5.83
2018-06-08T15:48:01.687Z,4.70
2018-06-08T15:50:29.176Z,6.70
2018-06-08T15:52:56.638Z,6.43
2018-06-08T15:55:24.104Z,4.63
2018-06-08T15:57:53.075Z,5.30
2018-06-08T16:00:20.524Z,5.47
2018-06-08T16:02:47.983Z,4.93
2018-06-08T16:05:15.454Z,5.20
2018-06-08T16:07:42.940Z,8.37
2018-06-08T16:10:10.509Z,5.03
2018-06-08T16:12:37.977Z,5.70
2018-06-08T16:15:06.208Z,6.00
2018-06-08T16:17:33.664Z,8.93
2018-06-08T16:20:01.141Z,6.90
2018-06-08T16:22:28.690Z,4.97
2018-06-08T16:24:57.624Z,5.60
2018-06-08T16:27:26.309Z,5.23
2018-06-08T16:29:53.776Z,6.40
2018-06-08T16:32:21.355Z,5.53
2018-06-08T16:34:50.355Z,5.00
2018-06-08T16:37:18.615Z,4.77
2018-06-08T16:39:46.092Z,6.50
2018-06-08T16:42:13.559Z,4.93
2018-06-08T16:44:41.792Z,5.47
2018-06-08T16:47:09.248Z,6.10
2018-06-08T16:49:36.714Z,9.93
2018-06-08T16:52:04.175Z,5.70
2018-06-08T16:54:31.648Z,6.53
2018-06-08T16:56:59.129Z,4.97
2018-06-08T16:59:26.602Z,7.30
2018-06-08T17:01:54.099Z,5.33
2018-06-08T17:04:22.328Z,5.27
2018-06-08T17:06:49.811Z,6.77
2018-06-08T17:09:17.270Z,5.90
2018-06-08T17:11:44.828Z,7.60
2018-06-08T17:14:12.391Z,5.47
2018-06-08T17:16:39.956Z,5.73
2018-06-08T17:19:07.421Z,7.37
2018-06-08T17:21:34.887Z,7.60
2018-06-08T17:24:02.444Z,4.43
2018-06-08T17:26:30.016Z,7.97
2018-06-08T17:28:57.583Z,4.50
2018-06-08T17:31:25.132Z,5.30
2018-06-08T17:33:52.718Z,4.57
2018-06-08T17:36:20.944Z,7.10
2018-06-08T17:38:49.986Z,6.03
2018-06-08T17:41:17.552Z,6.97
2018-06-08T17:43:45.102Z,6.80
2018-06-08T17:46:12.569Z,5.73
2018-06-08T17:48:40.136Z,5.30
2018-06-08T17:51:07.634Z,7.83
2018-06-08T17:53:35.159Z,7.03
2018-06-08T17:56:02.611Z,6.53
2018-06-08T17:58:30.226Z,5.17
2018-06-08T18:00:57.669Z,5.67
2018-06-08T18:03:25.936Z,7.27
2018-06-08T18:05:53.391Z,5.73
2018-06-08T18:08:20.952Z,7.67
2018-06-08T18:10:48.506Z,6.23
2018-06-08T18:13:16.079Z,5.80
2018-06-08T18:15:43.527Z,5.77
2018-06-08T18:18:11.008Z,7.10
2018-06-08T18:20:38.583Z,6.27
2018-06-08T18:23:06.027Z,5.63
2018-06-08T18:25:33.602Z,7.10
2018-06-08T18:28:01.173Z,5.73
2018-06-08T18:30:28.626Z,6.00
2018-06-08T18:32:56.199Z,8.67
2018-06-08T18:35:23.663Z,4.50
2018-06-08T18:37:51.908Z,7.43
2018-06-08T18:40:19.380Z,5.50
2018-06-08T18:42:46.842Z,4.63
2018-06-08T18:45:16.018Z,6.13
2018-06-08T18:47:43.537Z,5.43
2018-06-08T18:50:10.982Z,4.27
2018-06-08T18:52:38.456Z,5.63
2018-06-08T18:55:05.904Z,4.77
2018-06-08T18:57:33.472Z,5.40
2018-06-08T19:00:00.928Z,5.17
2018-06-08T19:02:28.491Z,8.47
2018-06-08T19:04:55.953Z,4.67
2018-06-08T19:07:23.449Z,4.87
2018-06-08T19:09:50.985Z,7.43
2018-06-08T19:12:18.443Z,5.23
2018-06-08T19:14:46.016Z,5.60
2018-06-08T19:17:13.472Z,5.57
2018-06-08T19:19:40.946Z,5.10
2018-06-08T19:22:09.214Z,6.70
2018-06-08T19:24:36.780Z,4.57
2018-06-08T19:27:04.243Z,4.37
2018-06-08T19:29:31.793Z,5.43
2018-06-08T19:31:59.381Z,4.53
2018-06-08T19:34:26.931Z,6.97
2018-06-08T19:36:54.513Z,5.83
2018-06-08T19:39:21.965Z,8.13
2018-06-08T19:41:49.429Z,7.00
2018-06-08T19:44:16.896Z,4.90
2018-06-08T19:46:45.125Z,5.73
2018-06-08T19:49:12.615Z,6.57
2018-06-08T19:51:40.066Z,7.77
2018-06-08T19:54:07.530Z,7.27
2018-06-08T19:56:35.807Z,6.40
2018-06-08T19:59:03.266Z,7.00
2018-06-08T20:01:30.743Z,5.80
2018-06-08T20:03:58.198Z,6.53
2018-06-08T20:06:25.658Z,4.87
2018-06-08T20:08:53.122Z,5.57
2018-06-08T20:11:20.592Z,6.83
2018-06-08T20:13:48.163Z,5.10
2018-06-08T20:16:15.735Z,5.17
2018-06-08T20:18:43.295Z,5.30
2018-06-08T20:21:10.856Z,6.30
2018-06-08T20:23:38.311Z,6.40
2018-06-08T20:26:05.781Z,5.57
2018-06-08T20:28:33.344Z,4.50
2018-06-08T20:31:00.912Z,4.80
2018-06-08T20:33:28.364Z,6.23
2018-06-08T20:35:55.826Z,6.23
2018-06-08T20:38:23.304Z,4.53
2018-06-08T20:40:50.861Z,5.50
2018-06-08T20:43:18.463Z,6.90
2018-06-08T20:45:46.672Z,5.23
2018-06-08T20:48:14.149Z,5.50
2018-06-08T20:50:41.619Z,6.60
2018-06-08T20:53:09.080Z,5.70
2018-06-08T20:55:36.549Z,4.30
2018-06-08T20:58:04.015Z,6.23
2018-06-08T21:00:31.575Z,5.93
2018-06-08T21:02:59.036Z,5.23
2018-06-08T21:05:26.501Z,7.27
2018-06-08T21:07:53.963Z,7.13
2018-06-08T21:10:21.529Z,5.80
2018-06-08T21:12:51.094Z,6.33
2018-06-08T21:15:18.545Z,4.87
2018-06-08T21:17:46.772Z,5.63
2018-06-08T21:20:14.351Z,6.03
2018-06-08T21:22:41.799Z,7.10
2018-06-08T21:25:09.374Z,4.93
2018-06-08T21:27:36.839Z,6.47
2018-06-08T21:30:05.084Z,5.80
2018-06-08T21:32:32.561Z,5.73
2018-06-08T21:35:00.003Z,5.63
2018-06-08T21:37:27.501Z,6.73
2018-06-08T21:39:54.949Z,7.37
2018-06-08T21:42:22.405Z,5.33
2018-06-08T21:44:49.870Z,4.73
2018-06-08T21:47:17.358Z,7.07
2018-06-08T21:49:44.835Z,4.67
2018-06-08T21:52:13.061Z,5.57
2018-06-08T21:54:40.516Z,6.43
2018-06-08T21:57:08.016Z,4.23
2018-06-08T21:59:35.478Z,4.70
2018-06-08T22:02:02.944Z,4.47
2018-06-08T22:04:30.424Z,5.47
2018-06-08T22:06:58.651Z,5.80
2018-06-08T22:09:26.112Z,4.83
2018-06-08T22:11:53.563Z,7.10
2018-06-08T22:14:21.031Z,5.77
2018-06-08T22:16:48.488Z,5.13
2018-06-08T22:19:15.996Z,5.60
2018-06-08T22:21:43.450Z,4.30
2018-06-08T22:24:11.024Z,4.10
2018-06-08T22:26:38.476Z,4.27
2018-06-08T22:29:06.027Z,4.67
2018-06-08T22:31:33.488Z,5.13
2018-06-08T22:34:00.978Z,4.60
2018-06-08T22:36:28.463Z,4.30
2018-06-08T22:38:56.711Z,8.57
2018-06-08T22:41:24.168Z,6.10
2018-06-08T22:43:51.636Z,4.53
2018-06-08T22:46:19.106Z,5.77
2018-06-08T22:48:47.358Z,4.80
2018-06-08T22:51:14.948Z,4.53
2018-06-08T22:53:42.402Z,4.87
2018-06-08T22:56:09.880Z,4.63
2018-06-08T22:58:37.335Z,4.40
2018-06-08T23:01:04.806Z,5.43
2018-06-08T23:03:33.065Z,3.70
2018-06-08T23:06:00.550Z,3.90
2018-06-08T23:08:28.776Z,3.63
2018-06-08T23:10:56.260Z,5.67
2018-06-08T23:13:23.743Z,3.57
2018-06-08T23:15:52.007Z,4.17
2018-06-08T23:18:19.568Z,5.57
2018-06-08T23:20:47.103Z,3.47
2018-06-08T23:23:14.555Z,4.03
2018-06-08T23:25:42.068Z,3.30
2018-06-08T23:28:09.527Z,3.80
2018-06-08T23:30:36.987Z,4.43
2018-06-08T23:33:04.443Z,5.27
2018-06-08T23:35:32.007Z,4.13
2018-06-08T23:37:59.483Z,3.80
2018-06-08T23:40:26.946Z,5.40
2018-06-08T23:42:54.399Z,3.30
2018-06-08T23:45:22.328Z,3.30
2018-06-08T23:47:49.785Z,2.90
2018-06-08T23:50:17.292Z,4.77
2018-06-08T23:52:44.752Z,4.17
2018-06-08T23:55:12.210Z,4.37
2018-06-08T23:57:39.682Z,4.50
